Time;durP1;ratioP1;P1;durP2;ratioP2;P2;SDS_P1;SDS_P2;PMS_P1;PMS_P2;Temp;Humidity;BMP_temperature;BMP_pressure;BME280_temperature;BME280_humidity;BME280_pressure;Samples;Min_cycle;Max_cycle;Signal;HPM_P1;HPM_P2
2021/06/22 00:01:19;;;;;;;2.97;1.63;;;14.40;94.60;;;;;;5033518;28;20029;-69
2021/06/22 00:03:45;;;;;;;3.90;1.50;;;14.30;94.70;;;;;;5033548;28;20025;-71
2021/06/22 00:06:10;;;;;;;3.55;1.50;;;14.30;94.70;;;;;;5032955;28;20474;-69
2021/06/22 00:08:36;;;;;;;3.20;1.83;;;14.30;94.70;;;;;;5033137;28;20406;-71
2021/06/22 00:11:02;;;;;;;3.28;1.20;;;14.30;94.70;;;;;;5032129;28;20045;-69
2021/06/22 00:13:27;;;;;;;7.38;2.20;;;14.30;94.70;;;;;;5034579;28;20053;-69
2021/06/22 00:15:53;;;;;;;3.90;1.70;;;14.20;94.70;;;;;;5033537;28;20026;-69
2021/06/22 00:18:18;;;;;;;3.67;1.90;;;14.20;94.80;;;;;;5032389;28;20033;-71
2021/06/22 00:20:44;;;;;;;3.67;1.90;;;14.20;94.90;;;;;;5034461;28;20567;-71
2021/06/22 00:23:09;;;;;;;3.83;1.70;;;14.10;95.00;;;;;;5034207;28;20026;-71
2021/06/22 00:25:35;;;;;;;3.30;1.80;;;14.10;95.00;;;;;;5037383;28;20108;-70
2021/06/22 00:28:00;;;;;;;3.70;2.00;;;14.10;95.10;;;;;;5037862;28;20041;-71
2021/06/22 00:30:26;;;;;;;5.85;2.63;;;13.90;95.10;;;;;;5031661;28;20096;-69
2021/06/22 00:32:52;;;;;;;6.47;2.70;;;13.90;95.30;;;;;;5033511;28;20021;-71
2021/06/22 00:35:18;;;;;;;5.80;2.83;;;13.80;95.50;;;;;;5032416;28;20029;-69
2021/06/22 00:37:44;;;;;;;3.80;2.10;;;13.80;95.60;;;;;;5034350;28;20028;-69
2021/06/22 00:40:12;;;;;;;4.47;2.83;;;13.70;95.70;;;;;;5032929;28;20444;-69
2021/06/22 00:42:43;;;;;;;4.82;2.10;;;13.70;95.80;;;;;;5037625;28;20017;-69
2021/06/22 00:45:10;;;;;;;4.25;2.13;;;13.70;95.80;;;;;;5033321;28;20037;-70
2021/06/22 00:47:36;;;;;;;4.95;2.25;;;13.70;95.80;;;;;;5033047;28;20080;-69
2021/06/22 00:50:02;;;;;;;4.18;2.13;;;13.70;95.90;;;;;;5033297;28;20017;-70
2021/06/22 00:52:29;;;;;;;5.13;2.80;;;13.70;95.90;;;;;;5031988;28;20104;-71
2021/06/22 00:54:56;;;;;;;4.13;2.08;;;13.70;95.90;;;;;;5034545;28;20087;-69
2021/06/22 00:57:22;;;;;;;6.63;2.00;;;13.70;96.00;;;;;;5035444;28;20052;-69
2021/06/22 00:59:49;;;;;;;4.18;1.88;;;13.70;96.00;;;;;;5039086;28;20112;-71
2021/06/22 01:02:15;;;;;;;6.55;2.63;;;13.70;96.00;;;;;;5036794;28;20029;-69
2021/06/22 01:04:41;;;;;;;4.75;2.88;;;13.70;96.00;;;;;;5037063;28;20037;-69
2021/06/22 01:07:09;;;;;;;5.53;3.03;;;13.60;96.00;;;;;;5035924;28;20381;-69
2021/06/22 01:09:35;;;;;;;4.07;2.72;;;13.60;96.20;;;;;;5035500;28;20049;-70
2021/06/22 01:12:00;;;;;;;3.35;2.35;;;13.60;96.20;;;;;;5037579;28;20381;-70
2021/06/22 01:14:27;;;;;;;4.68;2.60;;;13.60;96.30;;;;;;5036095;28;20021;-69
2021/06/22 01:16:54;;;;;;;5.07;2.65;;;13.50;96.30;;;;;;5037066;28;20018;-70
2021/06/22 01:19:20;;;;;;;5.00;2.17;;;13.50;96.40;;;;;;5035548;28;20436;-69
2021/06/22 01:21:47;;;;;;;5.07;2.50;;;13.50;96.40;;;;;;5037396;28;20017;-69
2021/06/22 01:24:17;;;;;;;3.22;2.42;;;13.50;96.40;;;;;;5039306;28;20021;-69
2021/06/22 01:26:46;;;;;;;;;;;13.50;96.40;;;;;;5037005;28;20021;-71
2021/06/22 01:29:12;;;;;;;3.78;2.58;;;13.40;96.40;;;;;;5062699;28;19905;-69
2021/06/22 01:31:39;;;;;;;2.67;2.40;;;13.30;96.70;;;;;;5035660;28;20097;-69
2021/06/22 01:34:04;;;;;;;7.72;3.22;;;13.30;96.80;;;;;;5035873;28;20465;-69
2021/06/22 01:36:32;;;;;;;5.38;2.92;;;13.30;96.90;;;;;;5034862;28;20040;-69
2021/06/22 01:38:58;;;;;;;4.95;2.83;;;13.20;97.00;;;;;;5034358;28;20018;-71
2021/06/22 01:41:24;;;;;;;5.70;2.60;;;13.20;97.10;;;;;;5038988;28;20453;-69
2021/06/22 01:43:49;;;;;;;5.88;3.10;;;13.20;97.10;;;;;;5036375;28;20027;-69
2021/06/22 01:46:16;;;;;;;5.43;2.67;;;13.10;97.20;;;;;;5036043;28;20020;-69
2021/06/22 01:48:42;;;;;;;4.32;2.45;;;13.20;97.30;;;;;;5035451;28;20025;-69
2021/06/22 01:51:07;;;;;;;6.90;2.78;;;13.20;97.30;;;;;;5034267;28;20025;-69
2021/06/22 01:53:33;;;;;;;6.35;2.17;;;13.20;97.30;;;;;;5034355;28;20021;-70
2021/06/22 01:55:59;;;;;;;3.38;1.92;;;13.20;97.30;;;;;;5034249;28;20030;-71
2021/06/22 01:58:25;;;;;;;3.80;2.33;;;13.20;97.60;;;;;;5038773;28;20064;-71
2021/06/22 02:00:53;;;;;;;4.85;2.50;;;13.20;97.30;;;;;;5036009;28;20481;-69
2021/06/22 02:03:21;;;;;;;6.43;2.20;;;13.20;97.30;;;;;;5037084;28;20025;-69
2021/06/22 02:05:48;;;;;;;4.05;2.45;;;13.20;97.30;;;;;;5034998;28;20128;-69
2021/06/22 02:08:16;;;;;;;6.07;2.80;;;13.20;97.30;;;;;;5034411;28;20036;-69
2021/06/22 02:10:43;;;;;;;4.20;3.08;;;13.20;97.40;;;;;;5034142;28;20045;-69
2021/06/22 02:13:09;;;;;;;5.68;2.90;;;13.20;97.40;;;;;;5033669;28;20025;-69
2021/06/22 02:15:35;;;;;;;3.47;2.72;;;13.20;97.50;;;;;;5035857;28;20079;-71
2021/06/22 02:18:01;;;;;;;3.97;2.58;;;13.10;97.50;;;;;;5035636;28;20477;-69
2021/06/22 02:20:27;;;;;;;6.28;2.85;;;13.20;97.60;;;;;;5032170;28;20110;-71
2021/06/22 02:22:53;;;;;;;4.32;2.55;;;13.10;97.60;;;;;;5035216;28;20489;-69
2021/06/22 02:25:20;;;;;;;4.13;2.67;;;13.10;97.60;;;;;;5034946;28;20025;-69
2021/06/22 02:27:45;;;;;;;5.65;2.50;;;13.10;97.70;;;;;;5036280;28;20481;-71
2021/06/22 02:30:16;;;;;;;3.88;2.22;;;13.10;97.70;;;;;;5032886;28;20049;-69
2021/06/22 02:32:42;;;;;;;6.13;2.60;;;13.10;97.70;;;;;;5034425;28;20051;-69
2021/06/22 02:35:10;;;;;;;5.43;2.35;;;13.10;97.70;;;;;;5033078;28;20465;-69
2021/06/22 02:37:37;;;;;;;4.18;2.42;;;13.10;97.80;;;;;;5031488;28;20029;-71
2021/06/22 02:40:05;;;;;;;4.70;2.67;;;13.10;97.80;;;;;;5033786;28;20389;-69
2021/06/22 02:42:31;;;;;;;3.65;2.47;;;13.10;97.80;;;;;;5034360;28;20029;-71
2021/06/22 02:44:56;;;;;;;4.57;2.17;;;13.00;97.80;;;;;;5036715;28;20021;-71
2021/06/22 02:47:23;;;;;;;3.40;2.03;;;13.00;97.90;;;;;;5035161;28;20079;-70
2021/06/22 02:49:48;;;;;;;3.58;2.10;;;13.00;97.80;;;;;;5033811;28;20028;-71
2021/06/22 02:52:14;;;;;;;4.60;2.65;;;13.00;97.90;;;;;;5033748;28;20447;-71
2021/06/22 02:54:40;;;;;;;3.75;2.50;;;13.00;97.90;;;;;;5033355;28;20029;-69
2021/06/22 02:57:07;;;;;;;3.80;2.60;;;13.00;98.00;;;;;;5035564;28;20029;-70
2021/06/22 02:59:33;;;;;;;3.50;1.95;;;13.00;98.00;;;;;;5035706;28;20367;-69
2021/06/22 03:01:59;;;;;;;5.80;2.72;;;13.00;98.00;;;;;;5036071;28;20028;-71
2021/06/22 03:04:24;;;;;;;6.18;2.72;;;12.90;98.00;;;;;;5034111;28;20034;-71
2021/06/22 03:06:50;;;;;;;5.03;3.50;;;12.80;98.00;;;;;;5034975;28;20025;-71
2021/06/22 03:09:15;;;;;;;4.38;2.75;;;12.80;98.20;;;;;;5033570;28;20026;-69
2021/06/22 03:11:41;;;;;;;5.40;3.08;;;12.70;98.40;;;;;;5031764;28;20018;-70
2021/06/22 03:14:07;;;;;;;4.75;3.13;;;12.70;98.50;;;;;;5033791;28;20041;-70
2021/06/22 03:16:32;;;;;;;4.32;3.00;;;12.70;98.50;;;;;;5035173;28;20049;-70
2021/06/22 03:18:58;;;;;;;5.20;3.25;;;12.70;98.60;;;;;;5033485;28;20041;-70
2021/06/22 03:21:23;;;;;;;4.38;2.75;;;12.60;98.60;;;;;;5032591;28;20022;-70
2021/06/22 03:23:49;;;;;;;4.35;2.58;;;12.70;98.60;;;;;;5035121;28;20067;-70
2021/06/22 03:26:15;;;;;;;8.13;2.55;;;12.70;98.60;;;;;;5038788;28;20112;-71
2021/06/22 03:28:41;;;;;;;5.35;3.17;;;12.70;98.60;;;;;;5034402;28;20026;-70
2021/06/22 03:31:06;;;;;;;4.43;3.17;;;12.70;98.60;;;;;;5035142;28;20020;-70
2021/06/22 03:33:32;;;;;;;6.15;3.70;;;12.70;98.70;;;;;;5032109;28;20104;-70
2021/06/22 03:35:58;;;;;;;4.97;3.45;;;12.70;98.70;;;;;;5033498;28;20025;-70
2021/06/22 03:38:23;;;;;;;5.95;3.70;;;12.60;98.80;;;;;;5032608;28;20154;-70
2021/06/22 03:40:48;;;;;;;4.47;3.13;;;12.60;98.80;;;;;;5034897;28;20381;-70
2021/06/22 03:43:14;;;;;;;4.72;3.03;;;12.70;98.80;;;;;;5036508;28;20037;-70
2021/06/22 03:45:40;;;;;;;4.65;3.25;;;12.60;98.90;;;;;;5034043;28;20076;-70
2021/06/22 03:48:07;;;;;;;6.65;3.50;;;12.70;98.90;;;;;;5034862;28;20108;-70
2021/06/22 03:50:33;;;;;;;5.57;2.92;;;12.70;98.90;;;;;;5033176;28;20026;-70
2021/06/22 03:52:59;;;;;;;5.32;3.03;;;12.70;99.00;;;;;;5033346;28;20513;-71
2021/06/22 03:55:31;;;;;;;5.05;3.00;;;12.70;99.00;;;;;;5032452;28;20021;-70
2021/06/22 03:58:00;;;;;;;6.45;3.35;;;12.70;99.10;;;;;;5036156;28;20041;-70
2021/06/22 04:00:29;;;;;;;6.20;3.30;;;12.70;99.10;;;;;;5034829;28;20027;-70
2021/06/22 04:02:59;;;;;;;5.60;3.58;;;12.70;99.10;;;;;;5033998;28;20586;-70
2021/06/22 04:05:29;;;;;;;6.13;3.80;;;12.70;99.10;;;;;;5034186;28;20873;-70
2021/06/22 04:07:55;;;;;;;;;;;12.70;99.20;;;;;;5033630;28;20478;-70
2021/06/22 04:10:21;;;;;;;4.88;3.28;;;12.70;99.20;;;;;;5031953;28;19905;-70
2021/06/22 04:12:46;;;;;;;5.30;4.22;;;12.70;99.50;;;;;;5031889;28;20533;-70
2021/06/22 04:15:12;;;;;;;6.82;4.00;;;12.70;99.40;;;;;;5033375;28;20029;-70
2021/06/22 04:17:38;;;;;;;6.60;3.72;;;12.70;99.40;;;;;;5040428;28;20021;-70
2021/06/22 04:20:05;;;;;;;5.93;3.35;;;12.80;99.50;;;;;;5051376;28;20128;-70
2021/06/22 04:22:31;;;;;;;6.90;3.75;;;12.80;99.50;;;;;;5052382;28;20457;-70
2021/06/22 04:24:56;;;;;;;5.95;3.72;;;12.80;99.50;;;;;;5052460;28;20120;-70
2021/06/22 04:27:22;;;;;;;6.35;3.60;;;12.80;99.60;;;;;;5052317;28;20104;-70
2021/06/22 04:29:48;;;;;;;7.80;4.43;;;12.90;99.60;;;;;;5052468;28;20021;-70
2021/06/22 04:32:14;;;;;;;5.50;3.63;;;12.90;99.90;;;;;;5052685;28;20361;-70
2021/06/22 04:34:40;;;;;;;7.68;4.10;;;12.90;99.70;;;;;;5056368;28;20094;-70
2021/06/22 04:37:05;;;;;;;7.13;3.60;;;12.90;99.70;;;;;;5056385;28;20035;-70
2021/06/22 04:39:31;;;;;;;6.95;3.40;;;13.00;99.70;;;;;;5056343;28;20037;-70
2021/06/22 04:41:57;;;;;;;7.15;3.78;;;13.00;99.70;;;;;;5056179;28;20029;-70
2021/06/22 04:44:22;;;;;;;8.57;4.30;;;13.00;99.60;;;;;;5056150;28;20583;-70
2021/06/22 04:46:48;;;;;;;5.65;3.08;;;13.00;99.60;;;;;;5054907;28;20020;-70
2021/06/22 04:49:13;;;;;;;5.53;3.13;;;13.00;99.60;;;;;;5056189;28;20025;-70
2021/06/22 04:51:39;;;;;;;11.88;4.20;;;13.00;99.50;;;;;;5056113;28;20103;-70
2021/06/22 04:54:07;;;;;;;6.20;3.83;;;13.10;99.50;;;;;;5056037;28;20027;-70
2021/06/22 04:56:33;;;;;;;7.85;3.95;;;13.10;99.40;;;;;;5045691;28;20026;-70
2021/06/22 04:59:00;;;;;;;7.97;4.25;;;13.10;99.30;;;;;;5035774;28;20512;-70
2021/06/22 05:01:26;;;;;;;7.95;3.38;;;13.10;99.30;;;;;;5042957;28;20033;-70
2021/06/22 05:03:52;;;;;;;6.85;4.20;;;13.20;99.20;;;;;;5064296;28;20025;-71
2021/06/22 05:06:18;;;;;;;8.52;5.18;;;13.20;99.10;;;;;;5057888;28;20377;-70
2021/06/22 05:08:44;;;;;;;9.90;5.03;;;13.20;99.10;;;;;;5055864;28;20419;-70
2021/06/22 05:11:09;;;;;;;8.13;5.45;;;13.20;99.00;;;;;;5055886;28;20473;-70
2021/06/22 05:13:35;;;;;;;10.35;5.40;;;13.20;98.90;;;;;;5055351;28;20155;-70
2021/06/22 05:16:01;;;;;;;12.57;6.78;;;13.30;98.80;;;;;;5055606;28;20079;-70
2021/06/22 05:18:27;;;;;;;10.35;5.47;;;13.30;98.70;;;;;;5055494;28;20069;-69
2021/06/22 05:20:53;;;;;;;8.02;5.78;;;13.30;98.60;;;;;;5055733;28;20056;-69
2021/06/22 05:23:18;;;;;;;8.82;5.97;;;13.30;98.40;;;;;;5055557;28;20118;-70
2021/06/22 05:25:44;;;;;;;9.88;6.07;;;13.40;98.40;;;;;;5055274;28;20036;-70
2021/06/22 05:28:11;;;;;;;8.80;6.00;;;13.50;98.20;;;;;;5065323;28;20035;-70
2021/06/22 05:30:37;;;;;;;11.57;7.22;;;13.50;98.10;;;;;;5074357;28;20028;-70
2021/06/22 05:33:04;;;;;;;10.73;7.88;;;13.50;97.90;;;;;;5074743;28;20484;-70
2021/06/22 05:35:30;;;;;;;11.50;7.00;;;13.60;97.70;;;;;;5075005;28;20059;-70
2021/06/22 05:37:55;;;;;;;11.02;6.80;;;13.60;97.60;;;;;;5075446;28;20032;-70
2021/06/22 05:40:21;;;;;;;10.55;7.10;;;13.70;97.60;;;;;;5075245;28;20031;-70
2021/06/22 05:42:47;;;;;;;10.65;7.07;;;13.70;97.40;;;;;;5074321;28;20086;-70
2021/06/22 05:45:13;;;;;;;8.63;6.78;;;13.80;97.20;;;;;;5068320;28;20083;-71
2021/06/22 05:47:39;;;;;;;9.38;6.78;;;13.80;97.10;;;;;;5042188;28;20569;-69
2021/06/22 05:50:05;;;;;;;13.07;8.20;;;13.90;97.00;;;;;;5044794;28;20021;-69
2021/06/22 05:52:30;;;;;;;11.45;8.05;;;14.00;96.80;;;;;;5038308;28;20033;-69
2021/06/22 05:54:56;;;;;;;11.63;6.88;;;14.00;96.70;;;;;;5038322;28;20029;-70
2021/06/22 05:57:22;;;;;;;11.63;8.00;;;14.00;96.60;;;;;;5034790;28;20108;-70
2021/06/22 05:59:47;;;;;;;10.90;7.00;;;14.10;96.50;;;;;;5034680;28;20025;-69
2021/06/22 06:02:13;;;;;;;8.85;6.72;;;14.20;96.40;;;;;;5033697;28;20033;-69
2021/06/22 06:04:38;;;;;;;10.95;7.20;;;14.20;96.30;;;;;;5034674;28;20100;-69
2021/06/22 06:07:04;;;;;;;9.18;7.03;;;14.30;96.20;;;;;;5034840;28;20075;-69
2021/06/22 06:09:29;;;;;;;10.55;6.20;;;14.30;96.20;;;;;;5034710;28;20029;-69
2021/06/22 06:11:55;;;;;;;8.77;6.07;;;14.40;96.10;;;;;;5034610;28;20025;-69
2021/06/22 06:14:21;;;;;;;12.82;7.55;;;14.50;96.10;;;;;;5033204;28;20030;-69
2021/06/22 06:16:47;;;;;;;13.63;7.43;;;14.50;96.00;;;;;;5041756;28;20570;-69
2021/06/22 06:19:13;;;;;;;9.98;6.75;;;14.50;95.90;;;;;;5054428;28;20045;-69
2021/06/22 06:21:39;;;;;;;14.43;6.85;;;14.50;95.80;;;;;;5054384;28;20029;-69
2021/06/22 06:24:06;;;;;;;7.95;6.15;;;14.60;95.80;;;;;;5054477;28;20021;-69
2021/06/22 06:26:37;;;;;;;9.15;6.43;;;14.70;95.70;;;;;;5054002;28;20029;-69
2021/06/22 06:29:14;;;;;;;11.65;5.72;;;14.80;95.70;;;;;;5054495;28;20036;-70
2021/06/22 06:31:40;;;;;;;9.98;6.38;;;14.80;95.50;;;;;;5054205;28;20526;-69
2021/06/22 06:34:05;;;;;;;10.70;6.88;;;14.90;95.50;;;;;;5052952;28;20033;-69
2021/06/22 06:36:31;;;;;;;7.55;6.40;;;14.90;95.30;;;;;;5052852;28;20021;-69
2021/06/22 06:38:56;;;;;;;8.90;5.47;;;15.00;95.20;;;;;;5053828;28;20472;-71
2021/06/22 06:41:22;;;;;;;7.28;6.20;;;15.00;95.20;;;;;;5053981;28;20507;-69
2021/06/22 06:43:47;;;;;;;8.80;5.70;;;15.10;95.10;;;;;;5052728;28;20484;-69
2021/06/22 06:46:13;;;;;;;11.45;6.50;;;15.20;95.10;;;;;;5053779;28;20435;-72
2021/06/22 06:48:40;;;;;;;9.15;6.10;;;15.20;94.90;;;;;;5052602;28;20021;-70
2021/06/22 06:51:06;;;;;;;8.73;6.50;;;15.30;94.80;;;;;;5053903;28;20021;-70
2021/06/22 06:53:31;;;;;;;11.27;6.22;;;15.30;94.60;;;;;;5053608;28;20024;-70
2021/06/22 06:55:57;;;;;;;10.90;7.47;;;15.40;94.50;;;;;;5052235;28;20032;-70
2021/06/22 06:58:22;;;;;;;7.50;5.57;;;15.50;94.40;;;;;;5052930;28;20021;-72
2021/06/22 07:00:48;;;;;;;9.75;7.35;;;15.60;94.30;;;;;;5051274;28;20035;-71
2021/06/22 07:03:13;;;;;;;13.55;8.30;;;15.60;94.00;;;;;;5050359;28;20025;-71
2021/06/22 07:05:39;;;;;;;12.27;8.10;;;15.70;93.50;;;;;;5052710;28;20028;-71
2021/06/22 07:08:05;;;;;;;10.93;7.13;;;15.80;92.80;;;;;;5052969;28;20031;-71
2021/06/22 07:10:32;;;;;;;9.73;6.82;;;15.90;92.70;;;;;;5052932;28;20025;-71
2021/06/22 07:13:00;;;;;;;10.23;7.68;;;15.90;92.50;;;;;;5051702;28;20021;-72
2021/06/22 07:15:26;;;;;;;10.30;7.65;;;16.00;92.40;;;;;;5050283;28;20109;-72
2021/06/22 07:17:52;;;;;;;10.05;6.55;;;16.10;92.20;;;;;;5052639;28;20021;-70
2021/06/22 07:20:18;;;;;;;7.90;6.32;;;16.20;92.10;;;;;;5051617;28;20082;-71
2021/06/22 07:22:44;;;;;;;11.82;7.60;;;16.30;91.90;;;;;;5051294;28;20029;-70
2021/06/22 07:25:10;;;;;;;9.63;6.60;;;16.40;91.50;;;;;;5052778;28;20032;-70
2021/06/22 07:27:35;;;;;;;12.80;7.38;;;16.40;91.40;;;;;;5051898;28;20482;-71
2021/06/22 07:30:02;;;;;;;12.50;7.80;;;16.50;91.20;;;;;;5052064;28;20048;-71
2021/06/22 07:32:28;;;;;;;8.90;7.47;;;16.60;90.80;;;;;;5052867;28;20025;-69
2021/06/22 07:34:53;;;;;;;8.20;7.03;;;16.70;90.50;;;;;;5053067;28;20481;-69
2021/06/22 07:37:19;;;;;;;9.77;6.97;;;16.80;90.50;;;;;;5052679;28;20519;-69
2021/06/22 07:39:44;;;;;;;8.70;7.40;;;16.80;90.30;;;;;;5052503;28;20033;-71
2021/06/22 07:42:10;;;;;;;8.88;7.60;;;16.90;90.20;;;;;;5052436;28;20116;-71
2021/06/22 07:44:35;;;;;;;9.32;7.20;;;17.00;90.20;;;;;;5052872;28;20118;-71
2021/06/22 07:47:01;;;;;;;10.25;8.02;;;17.10;90.00;;;;;;5052506;28;20040;-71
2021/06/22 07:49:26;;;;;;;8.70;7.35;;;17.10;89.30;;;;;;5052873;28;20048;-70
2021/06/22 07:51:52;;;;;;;11.68;7.47;;;17.10;89.00;;;;;;5051307;28;20025;-71
2021/06/22 07:54:17;;;;;;;8.85;7.43;;;17.10;88.90;;;;;;5052618;28;20029;-70
2021/06/22 07:56:43;;;;;;;8.45;7.55;;;17.20;88.70;;;;;;5040586;28;20491;-70
2021/06/22 07:59:09;;;;;;;10.02;7.30;;;17.20;88.00;;;;;;5032674;28;20048;-70
2021/06/22 08:01:34;;;;;;;10.38;7.68;;;17.30;86.90;;;;;;5047628;28;20465;-70
2021/06/22 08:04:00;;;;;;;12.45;8.15;;;17.40;85.40;;;;;;5052253;28;20036;-69
2021/06/22 08:06:25;;;;;;;9.50;7.65;;;17.40;85.30;;;;;;5052196;28;20029;-69
2021/06/22 08:08:51;;;;;;;10.95;8.18;;;17.40;85.30;;;;;;5056027;28;20096;-70
2021/06/22 08:11:16;;;;;;;13.82;8.93;;;17.50;84.60;;;;;;5055477;28;20547;-69
2021/06/22 08:13:42;;;;;;;13.55;8.45;;;17.50;83.30;;;;;;5055449;28;20024;-68
2021/06/22 08:16:08;;;;;;;9.60;7.97;;;17.40;83.00;;;;;;5055134;28;20025;-69
2021/06/22 08:18:34;;;;;;;8.82;8.00;;;17.30;83.60;;;;;;5055373;28;20048;-69
2021/06/22 08:21:01;;;;;;;12.10;9.00;;;17.40;83.70;;;;;;5055115;28;20464;-70
2021/06/22 08:23:27;;;;;;;8.45;7.30;;;17.30;83.00;;;;;;5055126;28;20040;-69
2021/06/22 08:25:53;;;;;;;9.57;7.13;;;17.40;82.80;;;;;;5053893;28;20021;-69
2021/06/22 08:28:20;;;;;;;9.38;7.50;;;17.40;83.00;;;;;;5053973;28;20071;-69
2021/06/22 08:30:45;;;;;;;9.55;6.72;;;17.50;82.80;;;;;;5053865;28;20021;-69
2021/06/22 08:33:12;;;;;;;7.90;6.97;;;17.50;82.70;;;;;;5055006;28;20028;-70
2021/06/22 08:35:38;;;;;;;8.98;7.78;;;17.50;82.70;;;;;;5030583;28;20032;-70
2021/06/22 08:38:07;;;;;;;10.77;7.25;;;17.60;83.00;;;;;;5053461;28;20401;-70
2021/06/22 08:40:33;;;;;;;12.95;8.65;;;17.70;82.70;;;;;;5054929;28;20492;-70
2021/06/22 08:42:58;;;;;;;10.43;8.05;;;17.80;82.10;;;;;;5054565;28;20032;-70
2021/06/22 08:45:24;;;;;;;11.70;7.75;;;17.90;81.40;;;;;;5054784;28;20020;-69
2021/06/22 08:47:50;;;;;;;8.23;6.85;;;18.00;81.00;;;;;;5054522;28;20421;-70
2021/06/22 08:50:17;;;;;;;8.13;6.68;;;18.00;80.70;;;;;;5054655;28;20024;-70
2021/06/22 08:52:43;;;;;;;10.55;7.80;;;18.20;80.50;;;;;;5053404;28;20423;-70
2021/06/22 08:55:29;;;;;;;10.60;8.02;;;18.20;79.70;;;;;;5054590;28;20491;-69
2021/06/22 08:58:07;;;;;;;9.20;7.57;;;18.20;79.10;;;;;;5052088;28;20124;-72
2021/06/22 09:00:36;;;;;;;10.20;6.88;;;18.30;79.50;;;;;;5055979;28;20021;-71
2021/06/22 09:03:23;;;;;;;9.77;6.75;;;18.50;79.10;;;;;;5055512;28;20025;-72
2021/06/22 09:05:53;;;;;;;10.05;6.50;;;18.60;78.60;;;;;;5054275;28;20037;-72
2021/06/22 09:08:28;;;;;;;10.23;8.55;;;18.80;78.60;;;;;;5055718;28;20025;-71
2021/06/22 09:11:04;;;;;;;9.98;7.30;;;18.90;77.70;;;;;;5055684;28;20023;-71
2021/06/22 09:13:31;;;;;;;10.10;7.72;;;19.00;77.70;;;;;;5055410;28;20207;-71
2021/06/22 09:15:56;;;;;;;10.65;8.10;;;19.10;77.60;;;;;;5054086;28;20025;-72
2021/06/22 09:18:23;;;;;;;9.65;6.75;;;19.10;77.30;;;;;;5054896;28;20507;-71
2021/06/22 09:20:48;;;;;;;8.82;7.78;;;19.10;77.40;;;;;;5054075;28;20546;-72
2021/06/22 09:23:23;;;;;;;9.98;8.80;;;19.10;77.00;;;;;;5055434;28;20029;-70
2021/06/22 09:25:50;;;;;;;8.93;7.65;;;19.00;76.40;;;;;;5055213;28;20025;-71
2021/06/22 09:28:17;;;;;;;10.00;7.90;;;18.90;76.70;;;;;;5055327;28;20025;-71
2021/06/22 09:30:46;;;;;;;9.65;7.88;;;19.00;76.50;;;;;;5055345;28;20021;-70
2021/06/22 09:33:16;;;;;;;9.80;8.00;;;19.00;76.40;;;;;;5054938;28;20055;-69
2021/06/22 09:35:42;;;;;;;10.93;7.40;;;19.20;76.40;;;;;;5055239;28;20022;-69
2021/06/22 09:38:07;;;;;;;10.35;8.15;;;19.30;76.00;;;;;;5054662;28;20057;-72
2021/06/22 09:40:33;;;;;;;11.65;8.95;;;19.30;75.30;;;;;;5053846;28;20052;-70
2021/06/22 09:42:59;;;;;;;8.75;7.55;;;19.40;74.20;;;;;;5054995;28;20476;-71
2021/06/22 09:45:28;;;;;;;7.28;6.57;;;19.50;74.60;;;;;;5053441;28;20060;-70
2021/06/22 09:47:55;;;;;;;6.90;6.20;;;19.60;74.90;;;;;;5054748;28;20461;-71
2021/06/22 09:50:36;;;;;;;10.02;8.25;;;19.90;74.90;;;;;;5054468;28;20025;-71
2021/06/22 09:53:28;;;;;;;9.43;7.57;;;20.10;74.50;;;;;;5052600;28;20013;-70
2021/06/22 09:55:54;;;;;;;10.63;8.02;;;20.20;74.30;;;;;;5054174;28;20024;-71
2021/06/22 09:58:38;;;;;;;9.93;8.10;;;20.20;73.00;;;;;;5053151;28;20020;-70
2021/06/22 10:01:04;;;;;;;9.10;7.32;;;20.40;72.50;;;;;;5053177;28;20021;-70
2021/06/22 10:03:37;;;;;;;10.07;7.50;;;20.40;72.30;;;;;;5054174;28;20025;-71
2021/06/22 10:06:06;;;;;;;9.73;6.95;;;20.50;72.10;;;;;;5052375;28;20020;-70
2021/06/22 10:08:55;;;;;;;8.88;7.50;;;20.50;72.00;;;;;;5037902;28;20021;-70
2021/06/22 10:11:32;;;;;;;12.32;7.55;;;20.60;72.10;;;;;;5054546;28;20029;-71
2021/06/22 10:13:58;;;;;;;7.88;6.55;;;20.70;71.10;;;;;;5054704;28;20021;-70
2021/06/22 10:16:26;;;;;;;10.38;6.82;;;20.80;71.20;;;;;;5054411;28;20024;-70
2021/06/22 10:18:52;;;;;;;9.02;7.03;;;20.90;71.20;;;;;;5054090;28;20047;-70
2021/06/22 10:21:18;;;;;;;8.43;7.22;;;21.00;70.90;;;;;;5054312;28;20086;-70
2021/06/22 10:23:44;;;;;;;8.57;6.53;;;21.00;70.60;;;;;;5053139;28;20029;-70
2021/06/22 10:26:10;;;;;;;8.80;7.25;;;21.00;70.40;;;;;;5054074;28;20074;-71
2021/06/22 10:28:37;;;;;;;9.88;6.97;;;21.10;70.20;;;;;;5054243;28;20021;-70
2021/06/22 10:31:04;;;;;;;9.18;6.82;;;21.10;69.80;;;;;;5053372;28;20477;-70
2021/06/22 10:33:30;;;;;;;9.35;7.38;;;21.20;69.70;;;;;;5054425;28;20017;-70
2021/06/22 10:35:57;;;;;;;7.80;6.40;;;21.20;69.40;;;;;;5053646;28;20393;-71
2021/06/22 10:38:25;;;;;;;9.50;6.63;;;21.20;69.10;;;;;;5053976;28;20031;-71
2021/06/22 10:40:55;;;;;;;7.35;6.60;;;21.30;68.70;;;;;;5053903;28;20021;-70
2021/06/22 10:43:38;;;;;;;7.53;5.50;;;21.30;67.90;;;;;;5053922;28;20032;-70
2021/06/22 10:46:07;;;;;;;6.20;5.18;;;21.40;67.30;;;;;;5053858;28;20037;-71
2021/06/22 10:48:45;;;;;;;5.60;5.00;;;21.50;67.00;;;;;;5053688;28;20497;-71
2021/06/22 10:51:30;;;;;;;5.35;4.72;;;21.70;66.70;;;;;;5053493;28;20033;-71
2021/06/22 10:53:56;;;;;;;8.23;5.80;;;21.90;66.10;;;;;;5053790;28;20021;-71
2021/06/22 10:56:24;;;;;;;7.43;6.10;;;21.90;65.00;;;;;;5053722;28;20136;-70
2021/06/22 10:59:11;;;;;;;7.10;5.40;;;21.90;65.20;;;;;;5058665;28;20116;-71
2021/06/22 11:01:50;;;;;;;7.07;6.35;;;22.10;64.90;;;;;;5064158;28;20020;-70
2021/06/22 11:04:15;;;;;;;5.47;4.97;;;22.10;63.90;;;;;;5058446;28;20385;-71
2021/06/22 11:06:41;;;;;;;6.40;5.03;;;22.10;64.50;;;;;;5053292;28;20039;-71
2021/06/22 11:09:17;;;;;;;6.68;4.95;;;22.10;62.70;;;;;;5053363;28;20090;-72
2021/06/22 11:11:43;;;;;;;6.97;6.10;;;22.30;62.30;;;;;;5052085;28;20504;-70
2021/06/22 11:14:10;;;;;;;10.13;6.30;;;22.40;61.60;;;;;;5053253;28;20021;-70
2021/06/22 11:16:36;;;;;;;8.10;6.07;;;22.40;60.90;;;;;;5053191;28;20017;-70
2021/06/22 11:19:10;;;;;;;5.50;4.88;;;22.40;60.80;;;;;;5053034;28;20519;-70
2021/06/22 11:21:58;;;;;;;7.45;5.18;;;22.50;60.50;;;;;;5052410;28;20021;-70
2021/06/22 11:24:28;;;;;;;5.65;4.70;;;22.60;60.00;;;;;;5052744;28;20033;-70
2021/06/22 11:26:54;;;;;;;5.72;4.80;;;22.60;60.50;;;;;;5053059;28;20424;-71
2021/06/22 11:29:25;;;;;;;6.10;5.50;;;22.70;60.00;;;;;;5053005;28;20029;-71
2021/06/22 11:31:51;;;;;;;7.85;5.00;;;22.80;59.40;;;;;;5053001;28;20049;-72
2021/06/22 11:34:20;;;;;;;6.03;4.63;;;22.80;59.40;;;;;;5051817;28;20531;-70
2021/06/22 11:36:47;;;;;;;;;;;23.00;59.80;;;;;;5053229;28;20110;-72
2021/06/22 11:39:19;;;;;;;5.68;4.63;;;23.30;60.20;;;;;;5051464;28;20352;-71
2021/06/22 11:44:46;;;;;;;5.50;4.53;;;23.60;58.20;;;;;;5053035;28;20075;-71
2021/06/22 11:47:27;;;;;;;5.53;4.22;;;23.60;56.60;;;;;;5052852;28;20048;-72
2021/06/22 11:49:54;;;;;;;5.35;4.40;;;23.70;54.90;;;;;;5051554;28;20408;-72
2021/06/22 11:52:22;;;;;;;5.57;4.43;;;23.70;55.10;;;;;;5051496;28;20049;-72
2021/06/22 11:54:51;;;;;;;5.18;4.07;;;23.90;54.70;;;;;;5052817;28;20017;-71
2021/06/22 11:57:29;;;;;;;5.70;4.18;;;24.00;55.10;;;;;;5052656;28;20027;-72
2021/06/22 11:59:57;;;;;;;6.60;4.82;;;24.20;55.30;;;;;;5052616;28;20027;-72
2021/06/22 12:02:23;;;;;;;7.40;5.63;;;24.30;54.60;;;;;;5052713;28;20033;-71
2021/06/22 12:04:49;;;;;;;7.75;6.03;;;24.50;54.40;;;;;;5051270;28;20031;-71
2021/06/22 12:07:16;;;;;;;6.63;5.45;;;24.40;53.80;;;;;;5052406;28;20017;-73
2021/06/22 12:09:44;;;;;;;7.32;5.50;;;24.50;53.90;;;;;;5052620;28;20021;-72
2021/06/22 12:12:10;;;;;;;6.22;5.13;;;24.50;53.70;;;;;;5052756;28;20021;-71
2021/06/22 12:14:43;;;;;;;6.68;5.20;;;24.60;53.80;;;;;;5051168;28;20028;-72
2021/06/22 12:17:20;;;;;;;6.97;5.90;;;24.80;53.60;;;;;;5052449;28;20115;-72
2021/06/22 12:19:46;;;;;;;6.97;5.78;;;24.80;53.10;;;;;;5052304;28;20068;-71
2021/06/22 12:22:15;;;;;;;6.57;5.18;;;24.90;53.50;;;;;;5052470;28;20111;-72
2021/06/22 12:24:42;;;;;;;4.78;4.32;;;24.90;52.70;;;;;;5052521;28;20060;-71
2021/06/22 12:27:09;;;;;;;5.45;4.63;;;24.90;53.00;;;;;;5052367;28;20029;-71
2021/06/22 12:29:35;;;;;;;6.60;5.55;;;25.00;53.10;;;;;;5052474;28;20099;-72
2021/06/22 12:32:03;;;;;;;6.00;5.22;;;25.20;53.00;;;;;;5052409;28;20032;-72
2021/06/22 12:34:31;;;;;;;5.45;4.95;;;25.30;52.80;;;;;;5052411;28;20021;-72
2021/06/22 12:36:58;;;;;;;4.90;4.40;;;25.40;52.50;;;;;;5052294;28;20025;-71
2021/06/22 12:39:26;;;;;;;4.80;4.20;;;25.40;52.80;;;;;;5052176;28;20500;-71
2021/06/22 12:42:02;;;;;;;5.28;3.97;;;25.50;52.40;;;;;;5053216;28;20025;-71
2021/06/22 12:44:28;;;;;;;6.32;4.30;;;25.60;51.80;;;;;;5058096;28;20017;-72
2021/06/22 12:46:53;;;;;;;6.13;4.25;;;25.70;50.90;;;;;;5063696;28;20086;-71
2021/06/22 12:49:26;;;;;;;4.25;3.78;;;25.70;50.80;;;;;;5071714;28;20032;-72